Time;durP1;ratioP1;P1;durP2;ratioP2;P2;SDS_P1;SDS_P2;PMS_P1;PMS_P2;Temp;Humidity;BMP_temperature;BMP_pressure;BME280_temperature;BME280_humidity;BME280_pressure;Samples;Min_cycle;Max_cycle;Signal;HPM_P1;HPM_P2
2022/09/08 03:55:54;;;;;;;2.80;0.73;;;17.50;99.90;;;;;;6189719;23;20171;-84
2022/09/08 03:58:33;;;;;;;3.53;1.13;;;17.50;99.90;;;;;;6172965;23;20084;-85
2022/09/08 04:08:29;;;;;;;1.13;0.90;;;17.60;99.90;;;;;;6072881;23;20095;-83
2022/09/08 04:11:29;;;;;;;2.67;1.10;;;17.60;99.90;;;;;;6072305;23;20118;-85
2022/09/08 04:14:41;;;;;;;0.98;0.95;;;17.50;99.90;;;;;;6187945;23;20059;-84
2022/09/08 04:17:36;;;;;;;1.48;1.10;;;17.50;99.90;;;;;;6186060;23;20016;-84
2022/09/08 04:20:03;;;;;;;1.50;0.95;;;17.60;99.90;;;;;;6180979;23;20015;-84
2022/09/08 04:25:58;;;;;;;0.80;0.80;;;17.50;99.90;;;;;;6189514;23;20012;-84
2022/09/08 04:28:41;;;;;;;1.75;1.23;;;17.50;99.90;;;;;;6198964;23;20005;-84
2022/09/08 04:31:11;;;;;;;3.38;0.80;;;17.50;99.90;;;;;;6202208;23;20008;-85
2022/09/08 04:33:42;;;;;;;1.35;0.80;;;17.50;99.90;;;;;;6209136;23;19999;-85
2022/09/08 04:36:13;;;;;;;2.53;0.90;;;17.50;99.90;;;;;;6209596;23;20001;-85
2022/09/08 04:38:40;;;;;;;0.97;0.70;;;17.50;99.90;;;;;;6194163;23;20606;-84
2022/09/08 04:41:12;;;;;;;2.65;1.00;;;17.50;99.90;;;;;;6189552;23;20017;-85
2022/09/08 04:43:38;;;;;;;2.22;1.15;;;17.50;99.90;;;;;;6188339;23;20009;-84
2022/09/08 04:46:11;;;;;;;4.15;0.93;;;17.40;99.90;;;;;;6190794;23;20383;-85
2022/09/08 04:48:41;;;;;;;2.13;1.13;;;17.40;99.90;;;;;;6192212;23;20005;-84
2022/09/08 04:51:09;;;;;;;3.83;1.38;;;17.40;99.90;;;;;;6204597;23;19999;-84
2022/09/08 04:53:38;;;;;;;2.58;1.30;;;17.40;99.90;;;;;;6188921;23;20005;-86
2022/09/08 04:56:06;;;;;;;0.77;0.60;;;17.40;99.90;;;;;;6191186;23;20387;-85
2022/09/08 04:58:34;;;;;;;1.60;1.17;;;17.40;99.90;;;;;;6195537;23;20001;-85
2022/09/08 05:01:15;;;;;;;2.67;0.73;;;17.40;99.90;;;;;;6200359;23;19993;-85
2022/09/08 05:03:51;;;;;;;1.42;0.85;;;17.40;99.90;;;;;;6204392;23;20001;-83
2022/09/08 05:06:17;;;;;;;0.95;0.90;;;17.40;99.90;;;;;;6211138;23;20007;-86
2022/09/08 05:08:45;;;;;;;1.15;0.90;;;17.40;99.90;;;;;;6213548;23;20009;-85
2022/09/08 05:11:14;;;;;;;0.80;0.60;;;17.40;99.90;;;;;;6212668;23;20009;-87
2022/09/08 05:13:40;;;;;;;1.55;0.85;;;17.40;99.90;;;;;;6237823;22;20016;-87
2022/09/08 05:16:12;;;;;;;1.83;0.98;;;17.40;99.90;;;;;;6211726;23;19997;-86
2022/09/08 05:18:54;;;;;;;1.13;0.85;;;17.40;99.90;;;;;;6209866;23;20053;-84
2022/09/08 05:21:21;;;;;;;1.52;1.25;;;17.50;99.90;;;;;;6211524;23;20032;-88
2022/09/08 05:23:54;;;;;;;2.75;0.70;;;17.50;99.90;;;;;;6211503;23;20088;-86
2022/09/08 05:26:22;;;;;;;2.33;1.05;;;17.60;99.90;;;;;;6211028;23;20028;-87
2022/09/08 05:28:48;;;;;;;1.48;0.70;;;17.60;99.90;;;;;;6211150;23;19993;-87
2022/09/08 05:31:20;;;;;;;2.03;0.90;;;17.70;99.90;;;;;;6210233;23;20012;-86
2022/09/08 05:33:46;;;;;;;2.65;0.73;;;17.70;99.90;;;;;;6211030;23;20005;-87
2022/09/08 05:36:21;;;;;;;0.75;0.63;;;17.70;99.90;;;;;;6211814;23;20004;-86
2022/09/08 05:38:48;;;;;;;1.27;0.70;;;17.80;99.90;;;;;;6206955;23;20009;-84
2022/09/08 05:41:15;;;;;;;0.68;0.68;;;17.80;99.90;;;;;;6198582;23;20012;-85
2022/09/08 05:43:50;;;;;;;0.70;0.70;;;17.80;99.90;;;;;;6199846;23;20009;-85
2022/09/08 05:46:18;;;;;;;1.35;0.70;;;17.90;99.90;;;;;;6199265;23;20005;-85
2022/09/08 05:48:44;;;;;;;1.17;0.68;;;17.90;99.90;;;;;;6189320;23;20001;-84
2022/09/08 05:51:11;;;;;;;1.20;0.40;;;17.90;99.90;;;;;;6192050;23;20074;-84
2022/09/08 05:53:38;;;;;;;1.55;0.80;;;17.90;99.90;;;;;;6192280;23;20044;-85
2022/09/08 05:56:12;;;;;;;7.45;0.82;;;17.90;99.90;;;;;;6192933;23;20010;-84
2022/09/08 05:58:38;;;;;;;3.67;0.77;;;17.90;99.90;;;;;;6193582;23;20055;-84
2022/09/08 06:01:10;;;;;;;4.28;0.90;;;17.90;99.80;;;;;;6195560;23;20008;-84
2022/09/08 06:03:36;;;;;;;;;;;17.90;99.70;;;;;;6196224;23;20478;-85
2022/09/08 06:06:07;;;;;;;0.65;0.60;;;17.90;98.90;;;;;;6197065;23;19920;-84
2022/09/08 06:08:42;;;;;;;2.42;0.50;;;17.90;98.90;;;;;;6197421;23;20012;-85
2022/09/08 06:11:11;;;;;;;2.45;0.65;;;17.90;98.70;;;;;;6199328;23;20011;-87
2022/09/08 06:13:37;;;;;;;2.35;0.50;;;17.90;98.00;;;;;;6201024;23;20059;-85
2022/09/08 06:16:12;;;;;;;1.08;0.50;;;18.00;98.20;;;;;;6203117;23;20027;-86
2022/09/08 06:18:40;;;;;;;3.28;0.65;;;18.00;97.70;;;;;;6211794;23;19989;-86
2022/09/08 06:21:11;;;;;;;0.95;0.32;;;18.10;97.50;;;;;;6210452;23;20001;-85
2022/09/08 06:23:40;;;;;;;1.55;0.57;;;18.10;96.90;;;;;;6203528;23;19993;-86
2022/09/08 06:26:15;;;;;;;0.45;0.45;;;18.20;96.40;;;;;;6200096;23;20339;-85
2022/09/08 06:28:49;;;;;;;0.47;0.47;;;18.20;96.50;;;;;;6210016;23;20012;-86
2022/09/08 06:31:23;;;;;;;0.40;0.40;;;18.30;96.20;;;;;;6210106;23;20032;-85
2022/09/08 06:33:50;;;;;;;2.15;0.38;;;18.30;95.60;;;;;;6201361;23;20005;-85
2022/09/08 06:36:41;;;;;;;0.52;0.30;;;18.40;95.90;;;;;;6202355;23;20009;-85
2022/09/08 06:39:14;;;;;;;0.63;0.40;;;18.30;95.30;;;;;;6202310;23;20064;-85
2022/09/08 06:41:50;;;;;;;0.40;0.40;;;18.30;95.40;;;;;;6199051;23;20005;-84
2022/09/08 06:44:29;;;;;;;0.43;0.40;;;18.30;95.20;;;;;;6199217;23;20001;-85
2022/09/08 06:46:57;;;;;;;0.32;0.30;;;18.30;94.90;;;;;;6197572;23;20012;-85
2022/09/08 06:49:27;;;;;;;0.50;0.50;;;18.30;95.30;;;;;;6196112;23;20095;-85
2022/09/08 06:52:02;;;;;;;0.68;0.40;;;18.30;95.30;;;;;;6199206;23;20048;-85
2022/09/08 06:54:54;;;;;;;1.15;0.30;;;18.30;95.10;;;;;;6197543;23;20092;-86
2022/09/08 06:57:41;;;;;;;3.20;0.45;;;18.40;95.40;;;;;;6222330;23;19998;-86
2022/09/08 07:00:21;;;;;;;2.72;0.50;;;18.40;95.00;;;;;;6198638;23;20004;-86
2022/09/08 07:03:12;;;;;;;1.25;0.82;;;18.30;95.30;;;;;;6198921;23;20043;-85
2022/09/08 07:05:41;;;;;;;0.90;0.47;;;18.30;96.00;;;;;;6198500;23;20005;-84
2022/09/08 07:08:19;;;;;;;0.50;0.38;;;18.20;96.30;;;;;;6197686;23;20005;-86
2022/09/08 07:11:03;;;;;;;0.55;0.40;;;18.10;96.40;;;;;;6198064;23;20001;-85
2022/09/08 07:14:04;;;;;;;0.90;0.70;;;18.10;97.10;;;;;;6197639;23;20020;-84
2022/09/08 07:16:45;;;;;;;0.90;0.70;;;18.00;97.80;;;;;;6197957;23;20063;-85
2022/09/08 07:19:29;;;;;;;0.50;0.50;;;17.90;98.20;;;;;;6196930;23;20111;-85
2022/09/08 07:22:10;;;;;;;0.98;0.90;;;17.90;99.00;;;;;;6197255;23;20012;-84
2022/09/08 07:24:38;;;;;;;1.40;0.63;;;17.80;99.70;;;;;;6197273;23;20389;-84
2022/09/08 07:27:07;;;;;;;0.90;0.60;;;17.70;99.90;;;;;;6197111;23;20001;-84
2022/09/08 07:29:40;;;;;;;1.23;0.50;;;17.70;99.90;;;;;;6197835;23;20348;-86
2022/09/08 07:32:15;;;;;;;1.00;0.80;;;17.50;99.90;;;;;;6196918;23;20001;-85
2022/09/08 07:34:52;;;;;;;3.30;1.20;;;17.50;99.90;;;;;;6198426;23;20009;-85
2022/09/08 07:37:27;;;;;;;1.15;0.90;;;17.30;99.90;;;;;;6206218;23;20365;-86
2022/09/08 07:40:05;;;;;;;3.08;0.73;;;17.20;99.90;;;;;;6200020;23;20211;-85
2022/09/08 07:42:33;;;;;;;2.35;1.10;;;17.00;99.90;;;;;;6193760;23;20009;-85
2022/09/08 07:45:10;;;;;;;2.33;1.08;;;17.00;99.90;;;;;;6193150;23;20006;-85
2022/09/08 07:47:46;;;;;;;2.40;0.80;;;16.90;99.90;;;;;;6196589;23;20005;-85
2022/09/08 07:53:18;;;;;;;1.88;0.90;;;16.80;99.90;;;;;;6201640;23;20007;-87
2022/09/08 07:55:44;;;;;;;1.95;0.65;;;16.80;99.90;;;;;;6214291;22;20020;-88
2022/09/08 07:58:27;;;;;;;1.73;0.90;;;16.80;99.90;;;;;;6231447;22;20008;-83
2022/09/08 08:00:56;;;;;;;1.48;1.10;;;16.80;99.90;;;;;;6198045;23;20000;-85
2022/09/08 08:03:35;;;;;;;5.22;0.80;;;16.80;99.90;;;;;;6208934;23;20008;-86
2022/09/08 08:06:25;;;;;;;1.85;0.82;;;16.80;99.90;;;;;;6216450;22;20016;-88
2022/09/08 08:09:26;;;;;;;0.60;0.60;;;16.80;99.90;;;;;;6216111;22;20005;-86
2022/09/08 08:12:15;;;;;;;1.77;0.52;;;16.90;99.90;;;;;;6216100;22;20035;-85
2022/09/08 08:15:06;;;;;;;0.85;0.80;;;17.00;99.90;;;;;;6202214;23;20022;-83
2022/09/08 08:17:48;;;;;;;1.08;0.52;;;17.00;99.90;;;;;;6196103;23;20024;-84
2022/09/08 08:20:38;;;;;;;1.73;0.80;;;17.10;99.90;;;;;;6225678;23;20011;-85
2022/09/08 08:23:32;;;;;;;2.70;1.20;;;17.20;99.90;;;;;;6198507;23;20092;-84
2022/09/08 08:26:19;;;;;;;2.55;1.23;;;17.30;99.90;;;;;;6197163;23;20080;-85
2022/09/08 08:28:51;;;;;;;1.95;0.77;;;17.50;99.90;;;;;;6198956;23;20013;-84
2022/09/08 08:31:40;;;;;;;1.55;0.70;;;17.60;99.90;;;;;;6199279;23;20450;-85
2022/09/08 08:34:23;;;;;;;1.00;0.63;;;17.60;99.90;;;;;;6201295;23;20028;-85
2022/09/08 08:36:58;;;;;;;0.77;0.70;;;17.80;99.90;;;;;;6199363;23;20024;-85
2022/09/08 08:39:27;;;;;;;0.68;0.65;;;17.90;99.90;;;;;;6198345;23;20001;-84
2022/09/08 08:42:33;;;;;;;1.88;0.77;;;18.00;99.90;;;;;;6198732;23;20031;-85
2022/09/08 08:45:16;;;;;;;1.02;0.52;;;18.10;99.90;;;;;;6197261;23;20348;-86
2022/09/08 08:48:01;;;;;;;1.85;0.60;;;18.10;99.90;;;;;;6197143;23;20011;-86
2022/09/08 08:51:00;;;;;;;2.00;0.93;;;18.10;99.90;;;;;;6195826;23;20004;-84
2022/09/08 08:53:54;;;;;;;2.58;0.80;;;18.20;99.90;;;;;;6193709;23;20005;-85
2022/09/08 08:56:55;;;;;;;0.63;0.40;;;18.30;99.90;;;;;;6198199;23;20347;-86
2022/09/08 08:59:41;;;;;;;1.48;0.95;;;18.30;99.90;;;;;;6227835;23;20001;-88
2022/09/08 09:02:37;;;;;;;0.50;0.50;;;18.30;99.90;;;;;;6202743;23;20005;-85
2022/09/08 09:05:30;;;;;;;1.45;0.82;;;18.40;99.90;;;;;;6208255;23;20008;-85
2022/09/08 09:08:15;;;;;;;1.55;0.80;;;18.60;99.60;;;;;;6214671;23;20018;-86
2022/09/08 09:11:08;;;;;;;0.55;0.55;;;18.70;99.40;;;;;;6216189;22;20001;-86
2022/09/08 09:13:56;;;;;;;2.35;0.50;;;18.90;98.60;;;;;;6216360;22;20027;-87
2022/09/08 09:16:58;;;;;;;0.40;0.40;;;19.20;98.10;;;;;;6216206;22;20011;-87
2022/09/08 09:19:42;;;;;;;0.50;0.50;;;19.40;96.50;;;;;;6215804;22;20040;-87
2022/09/08 09:22:21;;;;;;;1.42;0.50;;;19.60;95.80;;;;;;6242160;22;19989;-87
2022/09/08 09:25:29;;;;;;;0.50;0.50;;;19.90;95.40;;;;;;6215777;22;20005;-87
2022/09/08 09:28:34;;;;;;;0.40;0.40;;;20.20;94.30;;;;;;6199343;23;20052;-85
2022/09/08 09:31:38;;;;;;;0.57;0.32;;;20.50;93.30;;;;;;6204335;23;20056;-85
2022/09/08 09:34:35;;;;;;;0.80;0.80;;;21.10;91.60;;;;;;6213684;22;20009;-87
2022/09/08 09:40:50;;;;;;;2.55;0.60;;;21.80;87.40;;;;;;6242646;22;20004;-87
2022/09/08 09:43:25;;;;;;;1.35;0.50;;;22.20;86.90;;;;;;6216189;22;19999;-88
2022/09/08 09:46:13;;;;;;;1.27;1.00;;;22.40;81.40;;;;;;6239239;22;20005;-84
2022/09/08 09:48:49;;;;;;;0.50;0.50;;;22.20;81.60;;;;;;6184920;23;20447;-85
2022/09/08 09:51:26;;;;;;;0.70;0.70;;;22.00;81.90;;;;;;6195552;23;20293;-84
2022/09/08 09:54:21;;;;;;;0.63;0.50;;;22.00;81.70;;;;;;6197043;23;20016;-85
2022/09/08 09:57:04;;;;;;;0.70;0.40;;;22.10;80.20;;;;;;6199276;23;20011;-85
2022/09/08 10:00:06;;;;;;;0.75;0.43;;;22.20;78.90;;;;;;6227611;23;20000;-85
2022/09/08 10:03:04;;;;;;;0.77;0.40;;;22.20;79.60;;;;;;6200442;23;20024;-86
2022/09/08 10:06:07;;;;;;;0.60;0.60;;;22.00;79.20;;;;;;6203848;23;20092;-86
2022/09/08 10:08:57;;;;;;;0.40;0.40;;;21.80;77.40;;;;;;6240763;22;20048;-87
2022/09/08 10:11:44;;;;;;;1.30;0.40;;;21.50;79.30;;;;;;6235738;22;20072;-86
2022/09/08 10:14:43;;;;;;;1.23;0.40;;;21.40;79.00;;;;;;6207504;23;20004;-86
2022/09/08 10:17:40;;;;;;;0.95;0.70;;;21.40;79.20;;;;;;6214688;22;19996;-88
2022/09/08 10:20:23;;;;;;;1.63;0.50;;;21.40;77.60;;;;;;6211720;23;20463;-86
2022/09/08 10:23:05;;;;;;;0.40;0.40;;;21.70;77.30;;;;;;6215230;22;20020;-87
2022/09/08 10:25:49;;;;;;;1.65;0.60;;;21.80;75.50;;;;;;6213944;22;20017;-87
2022/09/08 10:28:39;;;;;;;1.33;0.60;;;21.80;74.80;;;;;;6208541;23;20008;-85
2022/09/08 10:31:30;;;;;;;1.05;0.40;;;21.80;75.10;;;;;;6208677;22;20068;-86
2022/09/08 10:34:13;;;;;;;1.00;0.80;;;21.80;75.20;;;;;;6198634;23;20328;-84
2022/09/08 10:37:11;;;;;;;1.65;1.05;;;21.80;75.40;;;;;;6209115;23;20447;-84
2022/09/08 10:40:09;;;;;;;0.60;0.60;;;21.90;73.90;;;;;;6204894;23;20172;-85
2022/09/08 10:43:29;;;;;;;0.63;0.63;;;22.00;74.20;;;;;;6202367;23;20001;-86
2022/09/08 10:46:09;;;;;;;2.50;0.57;;;22.10;73.70;;;;;;6166152;23;20005;-85
2022/09/08 10:48:51;;;;;;;1.98;0.47;;;22.20;73.10;;;;;;6204928;23;20020;-86
2022/09/08 10:51:38;;;;;;;0.50;0.50;;;22.10;72.90;;;;;;6212415;23;20001;-86
2022/09/08 10:54:16;;;;;;;0.52;0.52;;;21.90;74.30;;;;;;6213101;23;20000;-86
2022/09/08 10:56:58;;;;;;;2.30;0.60;;;21.80;74.10;;;;;;6214130;23;20044;-87
2022/09/08 10:59:50;;;;;;;0.73;0.60;;;21.60;74.60;;;;;;6167033;23;20047;-85
2022/09/08 11:02:34;;;;;;;1.65;0.60;;;21.50;73.30;;;;;;6164910;23;19998;-84
2022/09/08 11:05:18;;;;;;;0.38;0.38;;;21.50;72.70;;;;;;6190838;23;20065;-85
2022/09/08 11:08:21;;;;;;;0.90;0.40;;;21.40;72.20;;;;;;6189591;23;20005;-84
2022/09/08 11:11:11;;;;;;;1.50;0.60;;;21.30;70.90;;;;;;6169335;23;20006;-84
2022/09/08 11:13:49;;;;;;;1.55;0.80;;;21.10;71.90;;;;;;6171366;23;20014;-84
2022/09/08 11:16:23;;;;;;;1.17;0.45;;;20.90;71.90;;;;;;6166493;23;20002;-83
2022/09/08 11:19:24;;;;;;;0.40;0.30;;;20.80;73.10;;;;;;6189321;23;20037;-84
2022/09/08 11:22:38;;;;;;;1.17;0.70;;;20.70;74.00;;;;;;6161865;23;20068;-85
2022/09/08 11:25:16;;;;;;;0.45;0.40;;;20.60;74.30;;;;;;6136058;23;20006;-84
2022/09/08 11:27:50;;;;;;;0.77;0.55;;;20.60;74.70;;;;;;6116083;23;20006;-84
2022/09/08 11:30:23;;;;;;;0.50;0.50;;;20.60;74.60;;;;;;6140748;23;20001;-85
2022/09/08 11:33:13;;;;;;;0.90;0.60;;;20.80;73.40;;;;;;6187384;23;20010;-85
2022/09/08 11:36:00;;;;;;;1.27;0.70;;;20.90;73.10;;;;;;6188388;23;20029;-84
2022/09/08 11:38:46;;;;;;;0.90;0.90;;;21.10;73.30;;;;;;6166102;23;20033;-84
2022/09/08 11:41:30;;;;;;;0.60;0.60;;;21.30;72.20;;;;;;6167979;23;20037;-86
2022/09/08 11:44:03;;;;;;;4.68;1.08;;;21.40;72.50;;;;;;6188333;23;20053;-87
2022/09/08 11:46:51;;;;;;;1.35;0.63;;;21.50;72.20;;;;;;6165314;23;20002;-85
2022/09/08 11:49:36;;;;;;;3.40;0.82;;;21.40;71.60;;;;;;6165478;23;20377;-84
2022/09/08 11:52:35;;;;;;;0.95;0.90;;;21.20;71.10;;;;;;6165110;23;20005;-85
2022/09/08 11:55:07;;;;;;;0.68;0.68;;;21.00;72.50;;;;;;6165276;23;20010;-85
2022/09/08 11:58:14;;;;;;;1.10;0.60;;;20.80;73.60;;;;;;6171316;23;20499;-84
2022/09/08 12:00:55;;;;;;;1.13;0.77;;;20.70;74.10;;;;;;6158544;23;20023;-85
2022/09/08 12:03:50;;;;;;;4.03;0.70;;;20.80;74.10;;;;;;6228178;23;20016;-84
2022/09/08 12:06:45;;;;;;;0.82;0.65;;;21.40;73.60;;;;;;6201805;22;20009;-84
2022/09/08 12:09:42;;;;;;;0.88;0.57;;;21.90;71.50;;;;;;6199221;23;20025;-85
2022/09/08 12:12:26;;;;;;;2.10;0.70;;;22.50;70.40;;;;;;6200150;23;20080;-86
2022/09/08 12:14:58;;;;;;;1.00;0.50;;;22.50;68.80;;;;;;6202414;23;20013;-85
2022/09/08 12:17:53;;;;;;;1.63;0.70;;;22.40;68.80;;;;;;6227170;23;19993;-85
2022/09/08 12:20:48;;;;;;;2.97;0.88;;;22.40;69.10;;;;;;6200956;23;20011;-84
2022/09/08 12:23:31;;;;;;;2.42;0.77;;;22.30;69.10;;;;;;6204374;23;20024;-86
2022/09/08 12:26:23;;;;;;;0.63;0.45;;;22.20;69.10;;;;;;6202930;23;20061;-84
2022/09/08 12:29:14;;;;;;;4.10;0.93;;;22.10;69.70;;;;;;6233266;22;20040;-84
2022/09/08 12:32:07;;;;;;;1.20;0.70;;;22.10;69.50;;;;;;6234452;23;20000;-82
2022/09/08 12:34:39;;;;;;;0.63;0.63;;;22.10;70.00;;;;;;6231277;23;20032;-85
2022/09/08 12:37:25;;;;;;;0.70;0.70;;;22.10;70.70;;;;;;6231706;22;20013;-85
2022/09/08 12:40:28;;;;;;;0.80;0.80;;;22.20;70.70;;;;;;6203464;23;20031;-85
2022/09/08 12:43:12;;;;;;;1.85;0.70;;;22.40;70.70;;;;;;6231096;23;20446;-84
2022/09/08 12:45:57;;;;;;;0.88;0.57;;;23.30;69.30;;;;;;6202627;23;20001;-84
2022/09/08 12:48:23;;;;;;;2.22;0.90;;;24.20;65.50;;;;;;6236694;23;20439;-84
2022/09/08 12:51:00;;;;;;;0.85;0.85;;;24.20;64.50;;;;;;6232972;23;20027;-83
2022/09/08 12:54:00;;;;;;;0.75;0.60;;;23.90;64.90;;;;;;6230290;23;20005;-86
2022/09/08 12:57:15;;;;;;;0.95;0.80;;;23.60;65.80;;;;;;6203702;23;20035;-85
2022/09/08 12:59:49;;;;;;;0.60;0.60;;;23.50;66.60;;;;;;6230189;22;20063;-83
2022/09/08 13:02:18;;;;;;;0.80;0.70;;;23.40;66.40;;;;;;6230895;23;20020;-85
2022/09/08 13:05:06;;;;;;;1.15;0.60;;;23.60;66.10;;;;;;6230171;23;19996;-86
2022/09/08 13:07:57;;;;;;;0.35;0.35;;;23.70;65.70;;;;;;6230681;22;20027;-85
2022/09/08 13:10:34;;;;;;;0.43;0.43;;;23.90;65.10;;;;;;6194608;23;20048;-86
2022/09/08 13:13:12;;;;;;;0.43;0.43;;;24.10;64.40;;;;;;6229858;23;20012;-86
2022/09/08 13:15:51;;;;;;;0.75;0.50;;;24.20;63.60;;;;;;6229769;23;20000;-86
2022/09/08 13:18:59;;;;;;;1.02;0.63;;;24.00;64.50;;;;;;6201843;23;20056;-84
2022/09/08 13:21:39;;;;;;;1.02;0.80;;;23.90;64.50;;;;;;6195494;23;20234;-83
2022/09/08 13:24:20;;;;;;;0.70;0.70;;;24.00;64.80;;;;;;6230813;23;20005;-84
2022/09/08 13:27:01;;;;;;;2.38;1.08;;;24.00;64.40;;;;;;6202925;23;20043;-84
2022/09/08 13:29:48;;;;;;;1.17;0.60;;;23.70;65.20;;;;;;6230330;23;20007;-84
2022/09/08 13:32:59;;;;;;;2.92;0.60;;;23.90;65.80;;;;;;6228761;23;20331;-85
2022/09/08 13:35:40;;;;;;;0.50;0.50;;;24.00;64.40;;;;;;6178113;23;20043;-85
2022/09/08 13:38:27;;;;;;;0.80;0.60;;;24.90;64.10;;;;;;6230616;23;20001;-85
2022/09/08 13:41:01;;;;;;;0.50;0.50;;;25.80;61.40;;;;;;6230133;23;20030;-84
2022/09/08 13:43:52;;;;;;;0.98;0.52;;;26.00;60.10;;;;;;6228302;23;20060;-84
2022/09/08 13:46:29;;;;;;;0.50;0.43;;;26.10;57.90;;;;;;6230826;22;20018;-85
2022/09/08 13:49:15;;;;;;;0.32;0.32;;;26.30;57.40;;;;;;6199979;23;20335;-83
2022/09/08 13:52:10;;;;;;;1.85;0.47;;;26.30;56.20;;;;;;6198529;23;20075;-85
2022/09/08 13:54:54;;;;;;;3.90;0.73;;;26.30;55.90;;;;;;6226026;23;20005;-84
2022/09/08 13:57:57;;;;;;;1.27;0.82;;;26.50;54.90;;;;;;6227591;23;20004;-84
2022/09/08 14:00:23;;;;;;;2.40;0.90;;;26.60;54.10;;;;;;6200570;23;20063;-85
2022/09/08 14:02:54;;;;;;;2.15;0.90;;;26.30;53.60;;;;;;6225953;23;20019;-83
2022/09/08 14:05:29;;;;;;;0.70;0.70;;;26.30;54.50;;;;;;6229780;22;20139;-84
2022/09/08 14:08:04;;;;;;;1.05;0.60;;;25.90;54.50;;;;;;6232262;23;20007;-84
2022/09/08 14:11:00;;;;;;;1.35;0.63;;;25.20;55.10;;;;;;6203539;23;20015;-85
2022/09/08 14:13:34;;;;;;;3.55;0.90;;;24.40;57.10;;;;;;6200995;23;20144;-85
2022/09/08 14:16:19;;;;;;;2.03;0.82;;;23.90;58.30;;;;;;6229345;22;20004;-84
2022/09/08 14:19:00;;;;;;;0.60;0.60;;;23.50;58.60;;;;;;6228929;23;20016;-84
2022/09/08 14:21:39;;;;;;;1.70;0.70;;;23.40;59.30;;;;;;6230274;23;20060;-85
2022/09/08 14:24:25;;;;;;;2.42;0.90;;;23.30;59.20;;;;;;6228523;23;20024;-85
2022/09/08 14:27:02;;;;;;;2.95;0.70;;;23.00;59.80;;;;;;6229909;22;20001;-84
2022/09/08 14:29:31;;;;;;;2.90;1.08;;;23.50;59.60;;;;;;6205905;23;20081;-85
2022/09/08 14:32:22;;;;;;;0.88;0.60;;;24.10;57.30;;;;;;6229125;23;20028;-84
2022/09/08 14:35:16;;;;;;;1.02;0.60;;;24.30;56.40;;;;;;6225956;23;20020;-84
2022/09/08 14:38:11;;;;;;;3.30;0.75;;;24.60;56.20;;;;;;6226999;23;20011;-85
2022/09/08 14:40:55;;;;;;;0.68;0.68;;;25.10;54.50;;;;;;6236069;23;20342;-84
2022/09/08 14:43:48;;;;;;;2.20;1.10;;;25.30;53.60;;;;;;6230319;23;19999;-85
2022/09/08 14:46:31;;;;;;;4.00;0.88;;;25.00;53.80;;;;;;6230888;23;20004;-85
2022/09/08 14:49:15;;;;;;;1.75;0.80;;;24.90;54.20;;;;;;6231363;23;20007;-84
2022/09/08 14:52:25;;;;;;;1.10;0.88;;;25.10;54.30;;;;;;6230579;23;20050;-84
2022/09/08 14:55:05;;;;;;;1.05;0.80;;;25.10;52.90;;;;;;6221514;23;20013;-85
2022/09/08 14:57:50;;;;;;;0.77;0.73;;;25.00;53.40;;;;;;6230020;23;20011;-85
2022/09/08 15:00:26;;;;;;;2.75;0.90;;;24.90;53.20;;;;;;6228504;23;20012;-85
2022/09/08 15:03:07;;;;;;;0.65;0.60;;;24.40;54.20;;;;;;6202776;23;20008;-86
2022/09/08 15:05:33;;;;;;;1.77;0.75;;;24.40;54.30;;;;;;6226911;23;20289;-84
2022/09/08 15:08:10;;;;;;;0.80;0.80;;;24.60;53.80;;;;;;6228306;23;20025;-84
2022/09/08 15:10:57;;;;;;;0.50;0.50;;;24.70;52.70;;;;;;6229395;23;20005;-84
2022/09/08 15:13:33;;;;;;;2.92;0.77;;;24.80;52.10;;;;;;6228719;23;20001;-84
2022/09/08 15:16:20;;;;;;;0.60;0.55;;;24.90;51.70;;;;;;6233732;23;20018;-84
2022/09/08 15:18:51;;;;;;;1.67;1.02;;;24.80;52.00;;;;;;6215252;22;20002;-84
2022/09/08 15:21:22;;;;;;;0.77;0.50;;;24.70;52.70;;;;;;6213957;23;20005;-84
2022/09/08 15:23:54;;;;;;;1.75;0.60;;;24.70;52.90;;;;;;6213623;22;20055;-84
2022/09/08 15:26:34;;;;;;;1.20;0.50;;;24.80;52.70;;;;;;6208701;22;20368;-86
2022/09/08 15:29:11;;;;;;;1.38;0.57;;;24.80;53.70;;;;;;6227973;23;20012;-85
2022/09/08 15:32:32;;;;;;;2.38;0.90;;;24.80;53.30;;;;;;6201872;22;20005;-86
2022/09/08 15:35:27;;;;;;;1.02;0.80;;;24.80;53.60;;;;;;6133675;23;19994;-86
2022/09/08 15:38:57;;;;;;;3.20;0.70;;;25.00;53.40;;;;;;6225265;23;19996;-85
2022/09/08 15:41:31;;;;;;;0.65;0.50;;;25.20;52.90;;;;;;6162270;23;20331;-84
2022/09/08 15:44:09;;;;;;;0.82;0.55;;;25.30;53.10;;;;;;6226063;23;20001;-85
2022/09/08 15:46:59;;;;;;;0.80;0.75;;;25.20;53.10;;;;;;6199560;23;20091;-85
2022/09/08 15:49:43;;;;;;;1.88;0.82;;;25.10;53.60;;;;;;6199291;23;20091;-85
2022/09/08 15:52:32;;;;;;;1.13;0.90;;;24.80;53.20;;;;;;6227425;23;20019;-86
2022/09/08 15:55:30;;;;;;;2.63;1.13;;;24.40;54.10;;;;;;6228437;23;20008;-87
2022/09/08 15:58:08;;;;;;;4.00;2.10;;;24.00;55.00;;;;;;6223674;23;20088;-85
2022/09/08 16:00:45;;;;;;;1.05;0.90;;;23.80;55.10;;;;;;6199590;23;20051;-84
2022/09/08 16:03:12;;;;;;;1.75;0.90;;;23.60;55.00;;;;;;6223837;22;20001;-86
2022/09/08 16:05:51;;;;;;;2.67;0.80;;;23.50;55.20;;;;;;6222103;23;20001;-86
2022/09/08 16:08:18;;;;;;;0.77;0.77;;;23.40;55.50;;;;;;6219706;23;19996;-86
2022/09/08 16:11:22;;;;;;;0.65;0.60;;;23.20;55.90;;;;;;6193873;23;20579;-85
2022/09/08 16:14:09;;;;;;;2.65;0.70;;;23.20;56.80;;;;;;6225258;23;20035;-85
2022/09/08 16:16:41;;;;;;;1.00;0.45;;;23.10;56.20;;;;;;6199753;23;20055;-85
2022/09/08 16:19:19;;;;;;;4.03;0.80;;;22.90;56.30;;;;;;6233198;23;20000;-85
2022/09/08 16:22:03;;;;;;;4.25;0.77;;;22.90;57.50;;;;;;6198863;23;20561;-85
2022/09/08 16:24:53;;;;;;;1.55;0.60;;;22.70;57.00;;;;;;6210950;23;20028;-85
2022/09/08 16:27:18;;;;;;;2.40;0.68;;;22.60;57.40;;;;;;6211102;23;20012;-86
2022/09/08 16:30:02;;;;;;;3.70;0.90;;;22.60;57.20;;;;;;6199865;23;20005;-86
2022/09/08 16:32:48;;;;;;;0.43;0.40;;;22.50;57.40;;;;;;6201219;23;20005;-85
2022/09/08 16:35:38;;;;;;;0.50;0.50;;;22.30;57.30;;;;;;6154560;23;20008;-84
2022/09/08 16:38:27;;;;;;;1.33;0.95;;;22.20;57.60;;;;;;6199474;23;20012;-84
2022/09/08 16:40:58;;;;;;;1.00;0.75;;;22.10;58.00;;;;;;6226482;23;20016;-85
2022/09/08 16:43:28;;;;;;;0.85;0.70;;;22.00;57.60;;;;;;6199508;23;20031;-84
2022/09/08 16:46:29;;;;;;;2.40;0.80;;;22.00;58.00;;;;;;6197477;23;20004;-85
2022/09/08 16:49:15;;;;;;;4.05;0.73;;;21.90;58.60;;;;;;6202971;23;20059;-86
2022/09/08 16:52:06;;;;;;;4.32;0.80;;;21.80;59.20;;;;;;6225682;22;20008;-85
2022/09/08 16:54:48;;;;;;;2.95;0.60;;;21.70;59.80;;;;;;6197428;23;20420;-84
2022/09/08 16:57:33;;;;;;;0.57;0.57;;;21.50;60.30;;;;;;6225597;22;19997;-86
2022/09/08 17:00:05;;;;;;;3.22;1.15;;;21.50;60.80;;;;;;6227244;23;19996;-85
2022/09/08 17:02:51;;;;;;;3.42;0.80;;;21.40;61.40;;;;;;6225923;23;20090;-84
2022/09/08 17:05:32;;;;;;;1.67;0.73;;;21.20;62.00;;;;;;6199460;23;19997;-84
2022/09/08 17:08:15;;;;;;;0.70;0.70;;;21.10;62.60;;;;;;6226354;23;20015;-85
2022/09/08 17:10:59;;;;;;;0.73;0.73;;;21.10;62.90;;;;;;6231738;22;20004;-85
2022/09/08 17:13:26;;;;;;;0.70;0.70;;;21.00;63.30;;;;;;6202942;23;20013;-85
2022/09/08 17:16:25;;;;;;;1.33;0.80;;;20.90;63.60;;;;;;6232336;22;20022;-88
2022/09/08 17:19:02;;;;;;;1.83;0.63;;;20.80;64.10;;;;;;6208822;23;20000;-86
2022/09/08 17:21:43;;;;;;;2.40;0.90;;;20.60;64.50;;;;;;6208492;23;20016;-86
2022/09/08 17:24:38;;;;;;;1.15;0.63;;;20.50;65.10;;;;;;6205967;23;20087;-84
2022/09/08 17:27:30;;;;;;;0.95;0.90;;;20.40;65.50;;;;;;6229167;23;20008;-83
2022/09/08 17:30:14;;;;;;;1.03;0.80;;;20.30;66.10;;;;;;6228485;23;20005;-85
2022/09/08 17:33:14;;;;;;;1.50;1.08;;;20.20;66.50;;;;;;6228509;23;20295;-84
2022/09/08 17:35:50;;;;;;;2.08;0.73;;;20.20;66.60;;;;;;6202011;23;20013;-86
2022/09/08 17:38:32;;;;;;;2.13;1.23;;;20.20;66.50;;;;;;6229837;23;20009;-87
2022/09/08 17:41:19;;;;;;;1.73;1.55;;;20.10;66.90;;;;;;6205217;23;20059;-83
2022/09/08 17:44:04;;;;;;;1.27;1.17;;;20.00;66.80;;;;;;6200798;23;20029;-84
2022/09/08 17:46:48;;;;;;;1.10;1.00;;;19.90;66.60;;;;;;6226830;22;20367;-84
2022/09/08 17:49:20;;;;;;;2.45;1.15;;;19.90;66.70;;;;;;6204343;23;20000;-86
2022/09/08 17:52:17;;;;;;;2.28;1.40;;;19.80;68.10;;;;;;6198649;23;20461;-85
2022/09/08 17:54:44;;;;;;;1.40;1.20;;;19.70;67.10;;;;;;6228550;22;20087;-85
2022/09/08 17:57:26;;;;;;;1.02;0.95;;;19.60;67.10;;;;;;6200846;23;20340;-85
2022/09/08 18:00:01;;;;;;;1.98;1.25;;;19.60;67.60;;;;;;6228095;23;20019;-85
2022/09/08 18:02:50;;;;;;;1.67;1.05;;;19.50;67.80;;;;;;6203145;22;20103;-84
2022/09/08 18:05:19;;;;;;;1.67;1.25;;;19.50;68.00;;;;;;6226589;22;20112;-85
2022/09/08 18:08:23;;;;;;;1.58;1.17;;;19.40;68.30;;;;;;6226182;23;20007;-85
2022/09/08 18:11:04;;;;;;;2.15;1.23;;;19.40;68.60;;;;;;6227280;23;20004;-84
2022/09/08 18:13:37;;;;;;;1.23;1.13;;;19.30;68.90;;;;;;6226659;23;20000;-84
2022/09/08 18:16:12;;;;;;;1.58;1.02;;;19.30;69.10;;;;;;6203436;23;20059;-86
2022/09/08 18:18:41;;;;;;;2.60;1.02;;;19.30;69.40;;;;;;6228248;23;20004;-83